Time;durP1;ratioP1;P1;durP2;ratioP2;P2;SDS_P1;SDS_P2;PMS_P1;PMS_P2;Temp;Humidity;BMP_temperature;BMP_pressure;BME280_temperature;BME280_humidity;BME280_pressure;Samples;Min_cycle;Max_cycle;Signal;HPM_P1;HPM_P2
2023/02/12 00:00:55;;;;;;;35.90;23.60;;;8.20;1.00;;;;;;5037503;28;20051;-48
2023/02/12 00:03:21;;;;;;;36.13;24.30;;;8.10;1.00;;;;;;5037693;28;20021;-52
2023/02/12 00:05:47;;;;;;;37.27;24.53;;;8.10;1.00;;;;;;5037327;28;20049;-50
2023/02/12 00:08:15;;;;;;;35.47;24.43;;;8.10;1.00;;;;;;5037787;28;20029;-48
2023/02/12 00:10:42;;;;;;;35.87;24.40;;;8.10;1.00;;;;;;5037420;28;20361;-49
2023/02/12 00:13:08;;;;;;;38.97;25.27;;;8.10;1.00;;;;;;5037416;28;20033;-47
2023/02/12 00:15:40;;;;;;;33.63;23.97;;;8.00;1.00;;;;;;5037505;28;20049;-48
2023/02/12 00:18:06;;;;;;;36.53;23.87;;;8.10;1.00;;;;;;5037236;28;20036;-52
2023/02/12 00:20:32;;;;;;;36.10;24.03;;;8.10;1.00;;;;;;5036720;28;20379;-50
2023/02/12 00:22:58;;;;;;;35.17;23.00;;;8.10;1.00;;;;;;5037240;28;20021;-47
2023/02/12 00:25:23;;;;;;;31.67;22.90;;;8.20;1.00;;;;;;5037011;28;20049;-48
2023/02/12 00:27:49;;;;;;;36.40;23.67;;;8.10;1.00;;;;;;5034268;28;20053;-48
2023/02/12 00:30:15;;;;;;;36.57;24.73;;;8.10;1.00;;;;;;5033957;28;20171;-49
2023/02/12 00:32:40;;;;;;;36.63;23.87;;;8.10;1.00;;;;;;5034260;28;20056;-52
2023/02/12 00:35:06;;;;;;;30.90;22.57;;;8.20;1.00;;;;;;5032355;28;20036;-52
2023/02/12 00:37:32;;;;;;;37.63;23.80;;;8.20;1.00;;;;;;5032611;28;20021;-49
2023/02/12 00:39:58;;;;;;;33.40;22.83;;;8.20;1.00;;;;;;5034398;28;20034;-48
2023/02/12 00:42:23;;;;;;;36.90;23.43;;;8.20;1.00;;;;;;5033824;28;20410;-49
2023/02/12 00:44:49;;;;;;;37.97;23.73;;;8.20;1.00;;;;;;5034023;28;20033;-50
2023/02/12 00:47:15;;;;;;;37.40;21.93;;;8.20;1.00;;;;;;5033565;28;20064;-50
2023/02/12 00:49:41;;;;;;;31.10;22.43;;;8.10;1.00;;;;;;5032907;28;20014;-49
2023/02/12 00:52:07;;;;;;;36.63;24.10;;;8.10;1.00;;;;;;5029963;28;20044;-49
2023/02/12 00:54:33;;;;;;;32.53;23.43;;;8.10;1.00;;;;;;5033276;28;20116;-52
2023/02/12 00:56:59;;;;;;;38.17;23.73;;;8.00;1.00;;;;;;5034079;28;20033;-47
2023/02/12 00:59:25;;;;;;;34.23;24.57;;;8.20;1.00;;;;;;5033396;28;20041;-48
2023/02/12 01:01:53;;;;;;;33.03;24.70;;;8.20;1.00;;;;;;5033505;28;20034;-49
2023/02/12 01:04:19;;;;;;;34.73;23.13;;;8.10;1.00;;;;;;5033568;28;20068;-47
2023/02/12 01:06:45;;;;;;;38.20;25.30;;;8.10;1.00;;;;;;5032022;28;20348;-48
2023/02/12 01:09:11;;;;;;;35.20;24.00;;;8.10;1.00;;;;;;5033541;28;20040;-49
2023/02/12 01:11:37;;;;;;;36.57;22.97;;;8.00;1.00;;;;;;5032932;28;20534;-49
2023/02/12 01:14:03;;;;;;;38.63;25.57;;;8.00;1.00;;;;;;5031818;28;20164;-49
2023/02/12 01:16:35;;;;;;;38.33;24.57;;;8.10;1.00;;;;;;5033031;28;20088;-50
2023/02/12 01:19:01;;;;;;;40.77;26.77;;;8.10;1.00;;;;;;5033438;28;20021;-51
2023/02/12 01:21:29;;;;;;;40.27;24.90;;;8.10;1.00;;;;;;5032902;28;20510;-50
2023/02/12 01:23:56;;;;;;;40.10;25.17;;;8.10;1.00;;;;;;5032990;28;20025;-50
2023/02/12 01:26:23;;;;;;;35.60;25.00;;;8.00;1.00;;;;;;5033304;28;20043;-48
2023/02/12 01:28:52;;;;;;;35.37;24.33;;;8.10;1.00;;;;;;5032937;28;20511;-48
2023/02/12 01:31:20;;;;;;;36.03;25.03;;;8.10;1.00;;;;;;5031221;28;20044;-48
2023/02/12 01:33:51;;;;;;;38.87;25.20;;;8.10;1.00;;;;;;5033233;28;20114;-48
2023/02/12 01:36:17;;;;;;;34.70;24.33;;;8.00;1.00;;;;;;5032621;28;20039;-53
2023/02/12 01:38:42;;;;;;;35.43;24.13;;;8.10;1.00;;;;;;5032832;28;20029;-50
2023/02/12 01:41:13;;;;;;;37.37;25.37;;;8.10;1.00;;;;;;5032456;28;20497;-48
2023/02/12 01:43:39;;;;;;;36.80;25.13;;;8.00;1.00;;;;;;5033290;28;20442;-48
2023/02/12 01:52:54;;;;;;;34.10;23.87;;;8.00;1.00;;;;;;5017013;28;20060;-50
2023/02/12 01:55:21;;;;;;;35.90;24.20;;;8.00;1.00;;;;;;5028199;28;20025;-50
2023/02/12 01:57:48;;;;;;;37.33;23.40;;;8.00;1.00;;;;;;5031500;28;20061;-48
2023/02/12 02:00:17;;;;;;;32.40;22.83;;;8.00;1.00;;;;;;5014643;28;20108;-48
2023/02/12 02:02:45;;;;;;;35.23;23.67;;;8.00;1.00;;;;;;5027840;28;20083;-48
2023/02/12 02:05:13;;;;;;;34.27;24.00;;;8.00;1.00;;;;;;5032393;28;20053;-50
2023/02/12 02:07:42;;;;;;;37.40;24.00;;;8.00;1.00;;;;;;5031989;28;20459;-48
2023/02/12 02:10:09;;;;;;;36.37;24.30;;;8.00;1.00;;;;;;5032473;28;20489;-48
2023/02/12 02:15:20;;;;;;;38.67;24.17;;;8.10;1.00;;;;;;5032246;28;20131;-48
2023/02/12 02:17:56;;;;;;;33.97;24.23;;;8.00;1.00;;;;;;5032590;28;20538;-49
2023/02/12 02:20:41;;;;;;;37.23;24.13;;;8.00;1.00;;;;;;5032857;28;20375;-49
2023/02/12 02:23:28;;;;;;;34.05;24.50;;;8.10;1.00;;;;;;5030183;28;20081;-48
2023/02/12 02:26:35;;;;;;;36.00;24.27;;;8.10;1.00;;;;;;5018621;28;20037;-48
2023/02/12 02:29:10;;;;;;;38.90;25.10;;;8.00;1.00;;;;;;5025842;28;20029;-48
2023/02/12 02:31:43;;;;;;;38.58;25.05;;;7.90;1.00;;;;;;5030744;28;20486;-48
2023/02/12 02:34:37;;;;;;;37.47;24.57;;;7.90;1.00;;;;;;5031285;28;20021;-49
2023/02/12 02:37:27;;;;;;;36.60;24.13;;;7.90;1.00;;;;;;5030887;28;20475;-49
2023/02/12 02:40:03;;;;;;;38.03;25.43;;;7.90;1.00;;;;;;5031345;28;20018;-49
2023/02/12 02:42:35;;;;;;;38.63;25.60;;;7.90;1.00;;;;;;5031250;28;20029;-49
2023/02/12 02:45:11;;;;;;;40.67;26.67;;;7.90;1.00;;;;;;5031495;28;20557;-48
2023/02/12 02:47:42;;;;;;;35.67;25.60;;;7.90;1.00;;;;;;5030772;28;20163;-48
2023/02/12 02:50:18;;;;;;;37.37;24.60;;;7.80;1.00;;;;;;5029288;28;20513;-49
2023/02/12 02:53:27;;;;;;;38.70;25.40;;;7.90;1.00;;;;;;5030431;28;20127;-49
2023/02/12 02:55:55;;;;;;;39.50;27.20;;;7.90;1.00;;;;;;5020575;28;20037;-48
2023/02/12 02:58:34;;;;;;;42.00;27.27;;;7.90;1.00;;;;;;5030684;28;20051;-49
2023/02/12 03:01:06;;;;;;;39.60;25.90;;;7.80;1.00;;;;;;5031185;28;20107;-49
2023/02/12 03:03:38;;;;;;;39.47;26.83;;;7.80;1.00;;;;;;5031138;28;20029;-50
2023/02/12 03:06:09;;;;;;;35.03;25.80;;;7.80;1.00;;;;;;5031322;28;20490;-51
2023/02/12 03:09:24;;;;;;;41.27;26.30;;;7.70;1.00;;;;;;5031014;28;20139;-53
2023/02/12 03:11:52;;;;;;;40.97;26.63;;;7.70;1.00;;;;;;5028325;28;20044;-50
2023/02/12 03:14:24;;;;;;;42.07;27.20;;;7.70;1.00;;;;;;5030365;28;20380;-49
2023/02/12 03:17:14;;;;;;;44.77;28.73;;;7.70;1.00;;;;;;5030769;28;20072;-49
2023/02/12 03:19:46;;;;;;;39.93;25.87;;;7.70;1.00;;;;;;5030729;28;20100;-48
2023/02/12 03:22:26;;;;;;;40.80;27.07;;;7.70;1.00;;;;;;5030820;28;20472;-49
2023/02/12 03:25:08;;;;;;;39.70;26.83;;;7.70;1.00;;;;;;5031214;28;20037;-49
2023/02/12 03:27:38;;;;;;;44.17;28.30;;;7.60;1.00;;;;;;5030064;28;20028;-49
2023/02/12 03:30:05;;;;;;;36.83;26.67;;;7.60;1.00;;;;;;5031389;28;20040;-50
2023/02/12 03:32:53;;;;;;;40.73;27.00;;;7.60;1.00;;;;;;5030016;28;20368;-49
2023/02/12 03:35:34;;;;;;;39.83;27.17;;;7.70;1.00;;;;;;5029992;28;20116;-49
2023/02/12 03:38:25;;;;;;;42.67;27.63;;;7.60;1.00;;;;;;5031168;28;20542;-50
2023/02/12 03:41:04;;;;;;;42.13;28.27;;;7.70;1.00;;;;;;5031044;28;20026;-50
2023/02/12 03:43:41;;;;;;;39.33;27.37;;;7.70;1.00;;;;;;5030818;28;20098;-50
2023/02/12 03:46:22;;;;;;;42.03;29.10;;;7.70;1.00;;;;;;5031004;28;20372;-51
2023/02/12 03:49:09;;;;;;;44.47;28.00;;;7.60;1.00;;;;;;5031267;28;20071;-50
2023/02/12 03:51:43;;;;;;;46.10;28.40;;;7.60;1.00;;;;;;5019178;28;20033;-49
2023/02/12 03:54:11;;;;;;;42.50;29.83;;;7.60;1.00;;;;;;5031341;28;20028;-48
2023/02/12 03:56:44;;;;;;;43.07;28.77;;;7.60;1.00;;;;;;5030993;28;20037;-50
2023/02/12 03:59:11;;;;;;;48.30;29.97;;;7.50;1.00;;;;;;5029750;28;20141;-49
2023/02/12 04:01:37;;;;;;;41.10;28.10;;;7.40;1.00;;;;;;5029568;28;20436;-50
2023/02/12 04:04:05;;;;;;;45.23;28.30;;;7.50;1.00;;;;;;5033958;28;20373;-51
2023/02/12 04:06:31;;;;;;;46.03;28.70;;;7.60;1.00;;;;;;5034663;28;20025;-50
2023/02/12 04:09:02;;;;;;;40.30;28.60;;;7.50;1.00;;;;;;5034689;28;20032;-49
2023/02/12 04:11:52;;;;;;;46.60;28.80;;;7.60;1.00;;;;;;5034288;28;20029;-49
2023/02/12 04:14:42;;;;;;;46.87;31.20;;;7.50;1.00;;;;;;5034788;28;20426;-48
2023/02/12 04:17:26;;;;;;;44.60;30.10;;;7.50;1.00;;;;;;5033352;28;20029;-49
2023/02/12 04:20:08;;;;;;;43.30;29.23;;;7.40;1.00;;;;;;5034074;28;20030;-49
2023/02/12 04:22:53;;;;;;;45.17;30.80;;;7.30;1.00;;;;;;5034598;28;20026;-49
2023/02/12 04:25:40;;;;;;;50.55;31.15;;;7.20;1.00;;;;;;5034041;28;20041;-48
2023/02/12 04:28:30;;;;;;;45.93;29.83;;;7.30;1.00;;;;;;5034310;28;20313;-49
2023/02/12 04:31:19;;;;;;;45.10;30.57;;;7.30;1.00;;;;;;5029147;28;20030;-48
2023/02/12 04:34:06;;;;;;;47.33;30.37;;;7.40;1.00;;;;;;5034181;28;20114;-48
2023/02/12 04:36:38;;;;;;;42.57;30.17;;;7.40;1.00;;;;;;5024175;28;20113;-52
2023/02/12 04:39:13;;;;;;;45.47;31.00;;;7.40;1.00;;;;;;5034147;28;20067;-49
2023/02/12 04:41:39;;;;;;;45.77;32.60;;;7.30;1.00;;;;;;5034121;28;20415;-49
2023/02/12 04:44:21;;;;;;;44.80;30.43;;;7.40;1.00;;;;;;5033898;28;20022;-50
2023/02/12 04:46:46;;;;;;;45.80;28.90;;;7.40;1.00;;;;;;5033602;28;20036;-50
2023/02/12 04:49:17;;;;;;;43.00;29.40;;;7.40;1.00;;;;;;5033846;28;20100;-50
2023/02/12 04:51:43;;;;;;;43.13;29.90;;;7.40;1.00;;;;;;5025277;28;20045;-54
2023/02/12 04:54:09;;;;;;;48.43;31.03;;;7.30;1.00;;;;;;5032047;28;20013;-50
2023/02/12 04:56:34;;;;;;;46.17;30.70;;;7.30;1.00;;;;;;5033333;28;20428;-48
2023/02/12 04:59:00;;;;;;;44.73;30.73;;;7.20;1.00;;;;;;5033439;28;20028;-49
2023/02/12 05:01:25;;;;;;;44.97;30.87;;;7.30;1.00;;;;;;5033711;28;20437;-51
2023/02/12 05:03:52;;;;;;;47.03;31.03;;;7.30;1.00;;;;;;5033140;28;20543;-49
2023/02/12 05:06:18;;;;;;;45.37;30.57;;;7.20;1.00;;;;;;5033532;28;20123;-48
2023/02/12 05:08:45;;;;;;;46.17;30.13;;;7.30;1.00;;;;;;5033420;28;20049;-48
2023/02/12 05:11:10;;;;;;;42.80;29.80;;;7.30;1.00;;;;;;5033241;28;20033;-50
2023/02/12 05:13:37;;;;;;;48.30;31.23;;;7.30;1.00;;;;;;5032925;28;20038;-49
2023/02/12 05:16:04;;;;;;;44.77;30.40;;;7.20;1.00;;;;;;5032952;28;20078;-48
2023/02/12 05:18:30;;;;;;;45.20;29.43;;;7.20;1.00;;;;;;5047260;28;20021;-49
2023/02/12 05:20:57;;;;;;;45.10;29.97;;;7.20;1.00;;;;;;5032814;28;20529;-49
2023/02/12 05:23:30;;;;;;;47.17;30.30;;;7.30;1.00;;;;;;5033007;28;20052;-49
2023/02/12 05:26:00;;;;;;;41.43;29.87;;;7.20;1.00;;;;;;5033166;28;20041;-49
2023/02/12 05:28:26;;;;;;;42.67;30.87;;;7.20;1.00;;;;;;5033040;28;20021;-48
2023/02/12 05:30:52;;;;;;;44.73;30.13;;;7.20;1.00;;;;;;5032724;28;20022;-49
2023/02/12 05:33:18;;;;;;;46.27;30.70;;;7.20;1.00;;;;;;5032637;28;20044;-50
2023/02/12 05:35:43;;;;;;;45.53;29.63;;;7.20;1.00;;;;;;5033051;28;20484;-48
2023/02/12 05:38:09;;;;;;;43.70;30.63;;;7.10;1.00;;;;;;5033009;28;20379;-49
2023/02/12 05:40:35;;;;;;;43.37;28.93;;;7.10;1.00;;;;;;5032910;28;20410;-48
2023/02/12 05:43:01;;;;;;;44.80;31.60;;;7.10;1.00;;;;;;5032799;28;20152;-50
2023/02/12 05:45:28;;;;;;;41.83;29.17;;;7.10;1.00;;;;;;5032408;28;20034;-49
2023/02/12 05:47:54;;;;;;;47.27;30.53;;;7.20;1.00;;;;;;5031520;28;20432;-49
2023/02/12 05:50:20;;;;;;;47.03;28.93;;;7.20;1.00;;;;;;5032281;28;20049;-49
2023/02/12 05:52:46;;;;;;;44.50;30.20;;;7.10;1.00;;;;;;5032153;28;20047;-49
2023/02/12 05:55:12;;;;;;;46.67;31.30;;;7.10;1.00;;;;;;5031393;28;20025;-50
2023/02/12 05:57:37;;;;;;;43.00;30.50;;;7.10;1.00;;;;;;5031914;28;20025;-49
2023/02/12 06:00:06;;;;;;;46.63;31.87;;;7.10;1.00;;;;;;5031502;28;20379;-51
2023/02/12 06:02:35;;;;;;;46.30;30.80;;;7.00;1.00;;;;;;5032159;28;20479;-51
2023/02/12 06:05:01;;;;;;;46.20;29.20;;;7.00;1.00;;;;;;5032441;28;20048;-48
2023/02/12 06:07:27;;;;;;;43.13;29.60;;;7.00;1.00;;;;;;5031402;28;20556;-50
2023/02/12 06:09:53;;;;;;;43.13;30.03;;;7.00;1.00;;;;;;5028060;28;20109;-49
2023/02/12 06:12:20;;;;;;;47.13;29.30;;;7.10;1.00;;;;;;5032109;28;20051;-49
2023/02/12 06:14:46;;;;;;;46.20;30.40;;;7.10;1.00;;;;;;5018710;28;20021;-48
2023/02/12 06:17:11;;;;;;;46.43;31.40;;;7.00;1.00;;;;;;5035864;28;20102;-50
2023/02/12 06:19:37;;;;;;;48.23;30.00;;;7.10;1.00;;;;;;5030673;28;20427;-53
2023/02/12 06:22:03;;;;;;;44.50;30.60;;;7.10;1.00;;;;;;5032233;28;20032;-51
2023/02/12 06:24:28;;;;;;;44.77;29.70;;;7.10;1.00;;;;;;5031544;28;20435;-48
2023/02/12 06:26:54;;;;;;;43.90;28.90;;;6.90;1.00;;;;;;5031201;28;20032;-51
2023/02/12 06:29:20;;;;;;;41.63;29.83;;;7.00;1.00;;;;;;5032177;28;20123;-54
2023/02/12 06:31:46;;;;;;;42.30;30.50;;;7.10;1.00;;;;;;5031825;28;20051;-49
2023/02/12 06:34:15;;;;;;;42.37;29.53;;;7.10;1.00;;;;;;5031984;28;20027;-49
2023/02/12 06:36:43;;;;;;;44.27;29.77;;;7.10;1.00;;;;;;5031795;28;20029;-49
2023/02/12 06:39:11;;;;;;;40.63;28.47;;;7.10;1.00;;;;;;5031913;28;20025;-49
2023/02/12 06:41:36;;;;;;;43.90;29.03;;;7.10;1.00;;;;;;5031238;28;20514;-49
2023/02/12 06:44:03;;;;;;;44.70;29.77;;;7.10;1.00;;;;;;5031874;28;20021;-49
2023/02/12 06:46:29;;;;;;;48.43;29.97;;;7.10;1.00;;;;;;5029639;28;20038;-49
2023/02/12 06:48:56;;;;;;;42.03;29.27;;;7.00;1.00;;;;;;5031413;28;20025;-53
2023/02/12 06:51:44;;;;;;;43.30;29.87;;;7.10;1.00;;;;;;5032052;28;20069;-49
2023/02/12 06:54:14;;;;;;;45.13;29.97;;;7.10;1.00;;;;;;5031227;28;20075;-50
2023/02/12 06:56:40;;;;;;;47.10;30.00;;;7.10;1.00;;;;;;5024394;28;20037;-52
2023/02/12 06:59:05;;;;;;;43.47;28.93;;;7.10;1.00;;;;;;5044092;28;20467;-52
2023/02/12 07:01:31;;;;;;;44.63;29.33;;;7.10;1.00;;;;;;5031144;28;20061;-50
2023/02/12 07:03:59;;;;;;;42.80;27.80;;;7.00;1.00;;;;;;5031290;28;20061;-50
2023/02/12 07:06:26;;;;;;;41.47;27.40;;;7.10;1.00;;;;;;5031218;28;20072;-47
2023/02/12 07:08:53;;;;;;;41.73;29.33;;;7.10;1.00;;;;;;5030995;28;20479;-53
2023/02/12 07:11:25;;;;;;;41.30;28.97;;;7.00;1.00;;;;;;5031408;28;20040;-50
2023/02/12 07:13:51;;;;;;;43.63;29.70;;;7.10;1.00;;;;;;5030237;28;20482;-49
2023/02/12 07:16:17;;;;;;;42.73;29.80;;;7.10;1.00;;;;;;5031312;28;20033;-49
2023/02/12 07:18:44;;;;;;;43.93;29.33;;;7.10;1.00;;;;;;5039090;28;20029;-53
2023/02/12 07:21:11;;;;;;;44.10;30.13;;;7.20;1.00;;;;;;5031489;28;20025;-52
2023/02/12 07:23:37;;;;;;;44.60;30.67;;;7.20;1.00;;;;;;5031091;28;20026;-47
2023/02/12 07:26:10;;;;;;;47.80;30.47;;;7.20;1.00;;;;;;5031607;28;20022;-51
2023/02/12 07:28:35;;;;;;;46.53;31.50;;;7.20;1.00;;;;;;5031033;28;20033;-53
2023/02/12 07:31:14;;;;;;;45.83;30.63;;;7.20;1.00;;;;;;5031090;28;20055;-52
2023/02/12 07:33:41;;;;;;;43.67;30.67;;;7.30;1.00;;;;;;5031221;28;20029;-52
2023/02/12 07:36:11;;;;;;;45.40;29.90;;;7.30;1.00;;;;;;5031226;28;20222;-50
2023/02/12 07:38:40;;;;;;;45.93;31.27;;;7.20;1.00;;;;;;5035232;28;20018;-49
2023/02/12 07:41:33;;;;;;;49.27;32.20;;;7.30;1.00;;;;;;5034044;28;20014;-50
2023/02/12 07:44:03;;;;;;;44.53;30.40;;;7.30;1.00;;;;;;5030210;28;20539;-53
2023/02/12 07:46:31;;;;;;;44.83;30.33;;;7.30;1.00;;;;;;5034566;28;20057;-52
2023/02/12 07:48:58;;;;;;;45.27;30.97;;;7.40;1.00;;;;;;5034817;28;20495;-49
2023/02/12 07:51:25;;;;;;;43.07;31.50;;;7.40;1.00;;;;;;5033667;28;20029;-50
2023/02/12 07:53:51;;;;;;;41.63;30.20;;;7.50;1.00;;;;;;5034669;28;20025;-49
2023/02/12 07:56:20;;;;;;;46.60;30.53;;;7.50;1.00;;;;;;5035129;28;20033;-50
2023/02/12 07:58:47;;;;;;;44.57;31.23;;;7.50;1.00;;;;;;5034602;28;20033;-50
2023/02/12 08:01:17;;;;;;;44.10;32.10;;;7.50;1.00;;;;;;5034493;28;20057;-50
2023/02/12 08:03:43;;;;;;;46.33;31.37;;;7.50;1.00;;;;;;5032466;28;20059;-49
2023/02/12 08:06:17;;;;;;;42.40;29.43;;;7.50;1.00;;;;;;5033827;28;20064;-49
2023/02/12 08:08:43;;;;;;;47.28;32.15;;;7.60;1.00;;;;;;5034537;28;20041;-49
2023/02/12 08:11:11;;;;;;;43.80;29.83;;;7.70;1.00;;;;;;5034127;28;20033;-54
2023/02/12 08:13:37;;;;;;;45.43;31.80;;;7.70;1.00;;;;;;5034833;28;20049;-51
2023/02/12 08:16:05;;;;;;;44.43;31.87;;;7.70;1.00;;;;;;5034700;28;20033;-50
2023/02/12 08:18:32;;;;;;;44.87;32.17;;;7.70;1.00;;;;;;5037727;28;20072;-50
2023/02/12 08:21:05;;;;;;;48.20;31.33;;;7.70;1.00;;;;;;5033846;28;20030;-53
2023/02/12 08:23:31;;;;;;;47.33;32.73;;;7.80;1.00;;;;;;5033633;28;20029;-55
2023/02/12 08:26:10;;;;;;;49.03;32.90;;;7.70;1.00;;;;;;5029084;28;20045;-52
2023/02/12 08:28:37;;;;;;;52.03;33.07;;;7.80;1.00;;;;;;5034401;28;20029;-51
2023/02/12 08:31:07;;;;;;;49.63;35.50;;;7.80;1.00;;;;;;5034217;28;20045;-54
2023/02/12 08:33:32;;;;;;;53.00;33.93;;;7.80;1.00;;;;;;5034605;28;20040;-51
2023/02/12 08:36:10;;;;;;;51.20;35.33;;;7.90;1.00;;;;;;5032752;28;20408;-54
2023/02/12 08:38:37;;;;;;;59.70;37.90;;;7.90;1.00;;;;;;5034565;28;20079;-54
2023/02/12 08:41:05;;;;;;;55.93;36.43;;;7.90;1.00;;;;;;5033693;28;20056;-51
2023/02/12 08:43:31;;;;;;;51.77;35.97;;;7.90;1.00;;;;;;5034575;28;20061;-51
2023/02/12 08:46:05;;;;;;;46.80;32.90;;;8.00;1.00;;;;;;5033963;28;20052;-52
2023/02/12 08:48:31;;;;;;;48.30;33.45;;;8.00;1.00;;;;;;5033848;28;20563;-52
2023/02/12 08:51:03;;;;;;;53.70;33.40;;;8.10;1.00;;;;;;5033885;28;20112;-55
2023/02/12 08:53:29;;;;;;;48.43;34.60;;;8.00;1.00;;;;;;5034382;28;20041;-54
2023/02/12 08:55:54;;;;;;;54.10;37.00;;;8.10;1.00;;;;;;5032822;28;20022;-52
2023/02/12 08:58:20;;;;;;;54.13;35.13;;;8.10;1.00;;;;;;5033754;28;20104;-51
2023/02/12 09:00:45;;;;;;;53.17;38.90;;;8.20;1.00;;;;;;5034209;28;20094;-51
2023/02/12 09:03:11;;;;;;;54.33;37.13;;;8.20;1.00;;;;;;5033661;28;20391;-62
2023/02/12 09:05:41;;;;;;;53.23;36.63;;;8.20;1.00;;;;;;5032272;28;20073;-57
2023/02/12 09:08:07;;;;;;;62.13;38.10;;;8.20;1.00;;;;;;5022285;28;20368;-56
2023/02/12 09:10:33;;;;;;;57.27;37.50;;;8.30;1.00;;;;;;5033565;28;20127;-55
2023/02/12 09:12:59;;;;;;;57.47;36.87;;;8.30;1.00;;;;;;5034055;28;20341;-56
2023/02/12 09:15:24;;;;;;;54.73;37.23;;;8.40;1.00;;;;;;5033579;28;20032;-55
2023/02/12 09:17:50;;;;;;;53.33;36.40;;;8.40;1.00;;;;;;5045675;28;20382;-56
2023/02/12 09:20:16;;;;;;;52.90;37.00;;;8.40;1.00;;;;;;5033916;28;20025;-55
2023/02/12 09:22:42;;;;;;;50.83;34.53;;;8.50;1.00;;;;;;5034015;28;20112;-56
2023/02/12 09:25:07;;;;;;;54.23;36.07;;;8.50;1.00;;;;;;5033196;28;21316;-55
2023/02/12 09:27:33;;;;;;;51.27;35.33;;;8.50;1.00;;;;;;5032328;28;20114;-50
2023/02/12 09:29:58;;;;;;;49.77;36.10;;;8.60;1.00;;;;;;5028615;28;20057;-49
2023/02/12 09:32:24;;;;;;;53.20;36.37;;;8.60;1.00;;;;;;5033639;28;20041;-51
2023/02/12 09:34:49;;;;;;;50.50;35.03;;;8.60;1.00;;;;;;5033236;28;20095;-52
2023/02/12 09:37:15;;;;;;;54.17;36.40;;;8.70;1.00;;;;;;5033448;28;20049;-53
2023/02/12 09:39:41;;;;;;;55.17;36.17;;;8.70;1.00;;;;;;5033148;28;20026;-52
2023/02/12 09:42:24;;;;;;;49.90;36.57;;;8.80;1.00;;;;;;5032822;28;20108;-50
2023/02/12 09:45:09;;;;;;;51.17;36.50;;;8.80;1.00;;;;;;5032428;28;20029;-51
2023/02/12 09:47:55;;;;;;;49.87;36.13;;;8.80;1.00;;;;;;5028630;28;20033;-53
2023/02/12 09:50:44;;;;;;;48.13;35.00;;;8.80;1.00;;;;;;5033258;28;20045;-53
2023/02/12 09:53:17;;;;;;;47.83;33.93;;;8.90;1.00;;;;;;5032902;28;20041;-52
2023/02/12 09:55:44;;;;;;;50.30;35.80;;;9.00;1.00;;;;;;5032553;28;20391;-53
2023/02/12 09:58:30;;;;;;;53.13;37.03;;;9.00;1.00;;;;;;5032476;28;20037;-51
2023/02/12 10:00:56;;;;;;;49.17;35.87;;;9.10;1.00;;;;;;5033199;28;20037;-50
2023/02/12 10:03:21;;;;;;;52.53;37.60;;;9.10;1.00;;;;;;5032634;28;20029;-49
2023/02/12 10:06:01;;;;;;;53.47;36.77;;;9.20;1.00;;;;;;5032272;28;20047;-51
2023/02/12 10:09:02;;;;;;;51.77;35.77;;;9.20;1.00;;;;;;5032603;28;20030;-50
2023/02/12 10:11:34;;;;;;;53.50;37.87;;;9.30;1.00;;;;;;5031496;28;20472;-52
2023/02/12 10:14:10;;;;;;;45.97;34.50;;;9.30;1.00;;;;;;5032682;28;20028;-51
2023/02/12 10:16:56;;;;;;;52.37;34.27;;;9.30;1.00;;;;;;5035163;28;20351;-52
2023/02/12 10:19:50;;;;;;;49.13;33.93;;;9.40;1.00;;;;;;5040605;28;20033;-49
2023/02/12 10:22:38;;;;;;;49.77;33.87;;;9.40;1.00;;;;;;5030220;28;20033;-51
2023/02/12 10:25:08;;;;;;;50.87;35.67;;;9.50;1.00;;;;;;5032424;28;20040;-52
2023/02/12 10:27:47;;;;;;;51.17;35.13;;;9.50;1.00;;;;;;5032783;28;20113;-51
2023/02/12 10:30:25;;;;;;;48.13;33.23;;;9.50;1.00;;;;;;5028070;28;20029;-50
2023/02/12 10:32:57;;;;;;;49.53;33.97;;;9.60;1.00;;;;;;5032240;28;20033;-50
2023/02/12 10:35:24;;;;;;;51.10;34.80;;;9.70;1.00;;;;;;5031161;28;20064;-49
2023/02/12 10:38:12;;;;;;;46.77;32.73;;;9.70;1.00;;;;;;5025803;28;20033;-49
2023/02/12 10:40:43;;;;;;;44.97;30.53;;;9.80;1.00;;;;;;5031266;28;20025;-56
2023/02/12 10:43:11;;;;;;;40.00;29.23;;;9.80;1.00;;;;;;5041183;28;20017;-52
2023/02/12 10:45:39;;;;;;;41.30;30.73;;;9.80;1.00;;;;;;5048719;28;20382;-48
2023/02/12 10:48:07;;;;;;;42.80;30.53;;;9.90;1.00;;;;;;5033998;28;20025;-49
2023/02/12 10:50:51;;;;;;;42.97;30.93;;;9.90;1.00;;;;;;5046211;28;20021;-51
2023/02/12 10:53:24;;;;;;;38.40;29.27;;;10.00;1.00;;;;;;5032231;28;20033;-49
2023/02/12 10:56:02;;;;;;;40.80;28.23;;;10.00;1.00;;;;;;5032128;28;20032;-50
2023/02/12 10:58:28;;;;;;;40.47;28.97;;;10.10;1.00;;;;;;5044335;28;20419;-49
2023/02/12 11:00:58;;;;;;;34.93;26.60;;;10.10;1.00;;;;;;5033665;28;20060;-49
2023/02/12 11:03:32;;;;;;;37.60;26.67;;;10.10;1.00;;;;;;5032314;28;20331;-48
2023/02/12 11:06:21;;;;;;;33.03;24.85;;;10.20;1.00;;;;;;5020179;28;20110;-50
2023/02/12 11:08:47;;;;;;;32.17;24.30;;;10.20;1.00;;;;;;5031879;28;20018;-49
2023/02/12 11:11:14;;;;;;;41.13;26.55;;;10.20;1.00;;;;;;5031265;28;20096;-49
2023/02/12 11:13:45;;;;;;;33.93;25.63;;;10.30;1.00;;;;;;5032075;28;20128;-49
2023/02/12 11:16:11;;;;;;;36.00;26.07;;;10.30;1.00;;;;;;5044498;28;20454;-49
2023/02/12 11:18:37;;;;;;;32.97;24.17;;;10.40;1.00;;;;;;5032147;28;20124;-50
2023/02/12 11:21:07;;;;;;;34.97;24.80;;;10.40;1.00;;;;;;5031565;28;20104;-50
2023/02/12 11:23:44;;;;;;;36.97;25.47;;;10.40;1.00;;;;;;5032238;28;20026;-49
2023/02/12 11:26:18;;;;;;;33.05;23.73;;;10.50;1.00;;;;;;5030591;28;20484;-50
2023/02/12 11:29:17;;;;;;;31.98;23.27;;;10.50;1.00;;;;;;5026851;28;20029;-50
2023/02/12 11:32:29;;;;;;;30.17;22.55;;;10.60;1.00;;;;;;5031567;28;20033;-49
2023/02/12 11:35:27;;;;;;;30.50;22.37;;;10.60;1.00;;;;;;5031520;28;20025;-50
2023/02/12 11:37:57;;;;;;;33.63;23.38;;;10.60;1.00;;;;;;5031324;28;20037;-48
2023/02/12 11:40:27;;;;;;;34.03;24.58;;;10.70;1.00;;;;;;5031457;28;20089;-51
2023/02/12 11:43:05;;;;;;;34.42;24.65;;;10.80;1.00;;;;;;5031540;28;20036;-49
2023/02/12 11:45:50;;;;;;;36.40;25.45;;;10.90;1.00;;;;;;5018668;28;20033;-49
2023/02/12 11:48:30;;;;;;;33.22;24.48;;;10.90;1.00;;;;;;5030808;28;20125;-49
2023/02/12 11:51:00;;;;;;;34.15;24.95;;;11.00;1.00;;;;;;5042997;28;20379;-50
2023/02/12 11:53:41;;;;;;;33.17;26.00;;;11.00;1.00;;;;;;5031198;28;20038;-51
2023/02/12 11:56:12;;;;;;;36.10;25.77;;;11.00;1.00;;;;;;5031442;28;20513;-58
2023/02/12 11:58:38;;;;;;;32.38;24.45;;;11.10;1.00;;;;;;5031258;28;20493;-53
2023/02/12 12:01:17;;;;;;;31.98;24.30;;;11.20;1.00;;;;;;5031144;28;20021;-51
2023/02/12 12:03:42;;;;;;;25.10;19.77;;;11.20;1.00;;;;;;5031134;28;20037;-55
2023/02/12 12:06:35;;;;;;;29.50;21.45;;;11.20;1.00;;;;;;5031250;28;20034;-53
2023/02/12 12:09:09;;;;;;;29.48;22.98;;;11.20;1.00;;;;;;5031174;28;20048;-50
2023/02/12 12:11:47;;;;;;;28.92;21.02;;;11.30;1.00;;;;;;5031538;28;20347;-54
2023/02/12 12:14:23;;;;;;;25.90;19.83;;;11.30;1.00;;;;;;5031094;28;20026;-54
2023/02/12 12:20:09;;;;;;;29.17;20.95;;;11.60;1.00;;;;;;5031175;28;20053;-56
2023/02/12 12:23:02;;;;;;;29.35;21.70;;;11.60;1.00;;;;;;5031184;28;20156;-52
2023/02/12 12:25:50;;;;;;;30.27;22.30;;;11.70;1.00;;;;;;5024088;28;20030;-50
2023/02/12 12:28:40;;;;;;;31.27;22.98;;;11.70;1.00;;;;;;5033160;28;20078;-51
2023/02/12 12:31:22;;;;;;;31.08;22.17;;;11.70;1.00;;;;;;5033244;28;20029;-51
2023/02/12 12:33:50;;;;;;;26.48;21.08;;;11.80;1.00;;;;;;5021315;28;20061;-50
2023/02/12 12:36:39;;;;;;;28.55;21.35;;;11.90;1.00;;;;;;5034711;28;20056;-51
2023/02/12 12:39:32;;;;;;;26.90;21.77;;;11.90;1.00;;;;;;5034494;28;20093;-53
2023/02/12 12:42:12;;;;;;;31.02;22.52;;;11.90;1.00;;;;;;5034413;28;20033;-50
2023/02/12 12:44:45;;;;;;;29.00;22.95;;;12.00;1.00;;;;;;5034473;28;20037;-51
2023/02/12 12:47:21;;;;;;;28.42;22.80;;;12.00;1.00;;;;;;5034607;28;20040;-50
2023/02/12 12:50:06;;;;;;;32.63;23.63;;;12.00;1.00;;;;;;5047385;28;20545;-51
2023/02/12 12:52:44;;;;;;;32.38;25.30;;;12.10;1.00;;;;;;5022036;28;20052;-55
2023/02/12 12:55:34;;;;;;;30.58;23.90;;;12.10;1.00;;;;;;5032630;28;20135;-52
2023/02/12 12:58:17;;;;;;;32.88;24.63;;;12.10;1.00;;;;;;5024888;28;20076;-55
2023/02/12 13:01:16;;;;;;;32.47;24.38;;;12.10;1.00;;;;;;5034468;28;20025;-53
2023/02/12 13:03:54;;;;;;;33.97;23.65;;;12.20;1.00;;;;;;5034151;28;20038;-52
2023/02/12 13:06:54;;;;;;;28.58;23.23;;;12.30;1.00;;;;;;5034272;28;20034;-56
2023/02/12 13:09:42;;;;;;;31.63;24.17;;;12.30;1.00;;;;;;5034037;28;20360;-52
2023/02/12 13:12:20;;;;;;;30.08;23.80;;;12.30;1.00;;;;;;5033727;28;20045;-53
2023/02/12 13:15:21;;;;;;;33.15;23.50;;;12.40;1.00;;;;;;5034203;28;20069;-53
2023/02/12 13:18:13;;;;;;;30.77;24.75;;;12.40;1.00;;;;;;5028786;28;20033;-51
2023/02/12 13:21:03;;;;;;;32.88;24.00;;;12.50;1.00;;;;;;5021178;28;20025;-51
2023/02/12 13:23:41;;;;;;;32.40;23.65;;;12.50;1.00;;;;;;5033676;28;20441;-54
2023/02/12 13:26:29;;;;;;;32.20;24.83;;;12.50;1.00;;;;;;5033791;28;20045;-53